createdAt,value
2022-08-14T00:00:40.528Z,49.69
2022-08-14T00:04:01.543Z,49.71
2022-08-14T00:07:42.552Z,49.48
2022-08-14T00:11:07.523Z,49.46
2022-08-14T00:14:28.530Z,49.43
2022-08-14T00:17:53.368Z,49.69
2022-08-14T00:21:14.576Z,49.56
2022-08-14T00:24:37.728Z,49.57
2022-08-14T00:27:58.530Z,49.83
2022-08-14T00:31:35.387Z,49.80
2022-08-14T00:35:03.528Z,49.85
2022-08-14T00:38:24.606Z,49.73
2022-08-14T00:41:48.536Z,50.06
2022-08-14T00:45:09.598Z,50.28
2022-08-14T00:48:34.510Z,50.06
2022-08-14T00:51:58.099Z,50.26
2022-08-14T00:55:21.613Z,50.23
2022-08-14T00:58:45.100Z,50.29
2022-08-14T01:02:14.523Z,50.39
2022-08-14T01:05:41.808Z,50.48
2022-08-14T01:09:14.538Z,50.51
2022-08-14T01:12:40.711Z,50.33
2022-08-14T01:16:06.536Z,50.12
2022-08-14T01:19:47.999Z,50.41
2022-08-14T01:23:16.326Z,50.32
2022-08-14T01:26:40.603Z,50.54
2022-08-14T01:30:10.571Z,50.23
2022-08-14T01:34:00.432Z,50.50
2022-08-14T01:37:19.597Z,51.04
2022-08-14T01:40:41.917Z,51.45
2022-08-14T01:44:32.826Z,51.67
2022-08-14T01:47:50.557Z,52.14
2022-08-14T01:51:19.541Z,52.45
2022-08-14T01:54:41.642Z,52.62
2022-08-14T01:58:20.275Z,52.47
2022-08-14T02:01:51.542Z,52.29
2022-08-14T02:05:20.584Z,52.30
2022-08-14T02:08:53.300Z,52.57
2022-08-14T02:12:19.576Z,52.57
2022-08-14T02:15:43.584Z,52.61
2022-08-14T02:19:05.578Z,52.37
2022-08-14T02:22:28.631Z,52.61
2022-08-14T02:25:54.719Z,52.16
2022-08-14T02:29:59.191Z,51.63
2022-08-14T02:33:18.553Z,51.47
2022-08-14T02:37:04.591Z,51.17
2022-08-14T02:40:31.911Z,50.69
2022-08-14T02:43:54.659Z,50.51
2022-08-14T02:47:21.584Z,50.32
2022-08-14T02:50:44.619Z,50.36
2022-08-14T02:54:13.272Z,50.36
2022-08-14T02:57:42.568Z,50.55
2022-08-14T03:01:03.616Z,50.60
2022-08-14T03:04:28.582Z,50.76
2022-08-14T03:07:49.666Z,50.60
2022-08-14T03:11:18.576Z,50.75
2022-08-14T03:14:43.629Z,50.55
2022-08-14T03:18:05.585Z,50.61
2022-08-14T03:21:24.619Z,50.28
2022-08-14T03:24:46.585Z,50.40
2022-08-14T03:28:33.312Z,50.46
2022-08-14T03:31:58.578Z,50.23
2022-08-14T03:35:20.677Z,49.77
2022-08-14T03:39:11.617Z,49.82
2022-08-14T03:42:35.766Z,49.75
2022-08-14T03:45:57.573Z,49.60
2022-08-14T03:49:24.361Z,49.00
2022-08-14T03:52:55.606Z,49.36
2022-08-14T03:56:21.364Z,48.84
2022-08-14T03:59:42.594Z,48.67
2022-08-14T04:03:03.607Z,48.53
2022-08-14T04:06:28.348Z,48.73
2022-08-14T04:09:52.806Z,48.74
2022-08-14T04:13:17.600Z,48.57
2022-08-14T04:16:38.624Z,48.77
2022-08-14T04:20:00.689Z,48.49
2022-08-14T04:23:29.419Z,48.18
2022-08-14T04:26:55.691Z,48.18
2022-08-14T04:30:25.028Z,48.27
2022-08-14T04:33:54.607Z,48.29
2022-08-14T04:37:34.601Z,48.26
2022-08-14T04:41:14.658Z,48.46
2022-08-14T04:44:37.231Z,48.47
2022-08-14T04:48:39.879Z,48.31
2022-08-14T04:51:59.625Z,47.74
2022-08-14T04:55:16.826Z,47.65
2022-08-14T04:58:34.610Z,47.39
2022-08-14T05:01:57.382Z,47.59
2022-08-14T05:05:18.655Z,47.22
2022-08-14T05:08:56.888Z,47.54
2022-08-14T05:13:24.526Z,47.49
2022-08-14T05:16:01.696Z,47.40
2022-08-14T05:19:27.296Z,47.25
2022-08-14T05:22:55.612Z,47.12
2022-08-14T05:26:21.667Z,47.14
2022-08-14T05:29:42.707Z,46.67
2022-08-14T05:33:03.683Z,46.72
2022-08-14T05:36:27.035Z,46.97
2022-08-14T05:39:48.752Z,46.88
2022-08-14T05:43:11.666Z,46.72
2022-08-14T05:46:34.634Z,46.56
2022-08-14T05:49:58.624Z,46.45
2022-08-14T05:53:19.638Z,46.18
2022-08-14T05:56:42.635Z,45.92
2022-08-14T06:00:04.670Z,45.77
2022-08-14T06:03:28.708Z,45.69
2022-08-14T06:06:49.645Z,45.34
2022-08-14T06:10:10.685Z,45.39
2022-08-14T06:13:44.410Z,45.18
2022-08-14T06:17:06.624Z,44.70
2022-08-14T06:20:28.750Z,44.13
2022-08-14T06:23:50.642Z,43.96
2022-08-14T06:27:12.612Z,44.02
2022-08-14T06:30:46.170Z,44.18
2022-08-14T06:35:03.350Z,44.56
2022-08-14T06:37:59.630Z,44.38
2022-08-14T06:41:52.666Z,43.87
2022-08-14T06:45:07.667Z,44.20
2022-08-14T06:48:33.652Z,43.87
2022-08-14T06:51:56.637Z,43.62
2022-08-14T06:55:28.220Z,43.62
2022-08-14T06:58:50.640Z,43.24
2022-08-14T07:02:29.693Z,43.19
2022-08-14T07:05:58.665Z,43.14
2022-08-14T07:09:22.566Z,42.51
2022-08-14T07:13:00.761Z,42.25
2022-08-14T07:16:22.680Z,42.03
2022-08-14T07:19:48.652Z,41.79
2022-08-14T07:23:09.292Z,41.86
2022-08-14T07:26:31.651Z,41.56
2022-08-14T07:29:52.644Z,41.50
2022-08-14T07:33:13.636Z,41.23
2022-08-14T07:36:35.674Z,40.60
2022-08-14T07:39:56.710Z,40.57
2022-08-14T07:43:18.653Z,40.05
2022-08-14T07:46:41.637Z,39.75
2022-08-14T07:50:34.715Z,39.48
2022-08-14T07:54:03.496Z,39.66
2022-08-14T07:57:35.704Z,39.21
2022-08-14T08:00:57.908Z,38.91
2022-08-14T08:04:24.565Z,39.06
2022-08-14T08:07:45.688Z,38.75
2022-08-14T08:11:14.696Z,38.43
2022-08-14T08:14:56.317Z,38.04
2022-08-14T08:18:29.251Z,37.84
2022-08-14T08:21:53.755Z,37.44
2022-08-14T08:25:17.798Z,37.11
2022-08-14T08:28:41.522Z,36.99
2022-08-14T08:32:05.969Z,36.94
2022-08-14T08:35:46.249Z,36.63
2022-08-14T08:39:16.919Z,36.29
2022-08-14T08:42:44.888Z,36.36
2022-08-14T08:46:08.664Z,35.87
2022-08-14T08:49:59.621Z,36.34
2022-08-14T08:53:16.679Z,35.64
2022-08-14T08:56:56.079Z,35.18
2022-08-14T09:00:26.703Z,34.52
2022-08-14T09:03:47.766Z,33.50
2022-08-14T09:07:11.292Z,33.33
2022-08-14T09:10:31.689Z,33.15
2022-08-14T09:13:53.697Z,32.85
2022-08-14T09:17:14.666Z,32.72
2022-08-14T09:20:36.941Z,31.99
2022-08-14T09:24:26.935Z,32.03
2022-08-14T09:27:42.716Z,31.98
2022-08-14T09:31:17.834Z,31.10
2022-08-14T09:34:59.741Z,31.02
2022-08-14T09:39:22.829Z,30.54
2022-08-14T09:43:22.501Z,30.57
2022-08-14T09:46:43.672Z,30.25
2022-08-14T09:50:10.678Z,30.51
2022-08-14T09:54:19.355Z,30.07
2022-08-14T09:57:41.691Z,29.57
2022-08-14T10:01:06.697Z,29.42
2022-08-14T10:04:46.202Z,29.11
2022-08-14T10:08:14.974Z,28.88
2022-08-14T10:12:18.867Z,28.42
2022-08-14T10:16:01.950Z,28.35
2022-08-14T10:25:18.395Z,27.34
2022-08-14T10:28:39.506Z,27.23
2022-08-14T10:32:17.593Z,27.82
2022-08-14T10:35:57.777Z,27.72
2022-08-14T10:39:32.864Z,27.34
2022-08-14T10:42:56.324Z,27.08
2022-08-14T10:47:39.808Z,26.45
2022-08-14T10:50:15.017Z,26.74
2022-08-14T10:53:42.764Z,26.88
2022-08-14T10:57:03.840Z,26.69
2022-08-14T11:00:35.479Z,26.30
2022-08-14T11:03:57.836Z,26.71
2022-08-14T11:07:28.773Z,26.92
2022-08-14T11:10:55.791Z,27.01
2022-08-14T11:14:22.819Z,26.63
2022-08-14T11:17:47.787Z,26.77
2022-08-14T11:21:09.676Z,26.31
2022-08-14T11:24:55.357Z,26.25
2022-08-14T11:28:19.816Z,26.54
2022-08-14T11:32:01.752Z,26.49
2022-08-14T11:35:44.089Z,26.61
2022-08-14T11:39:10.713Z,26.95
2022-08-14T11:42:56.922Z,26.73
2022-08-14T11:46:30.727Z,26.85
2022-08-14T11:50:02.733Z,26.77
2022-08-14T11:53:41.898Z,27.23
2022-08-14T11:57:02.717Z,27.14
2022-08-14T12:00:31.623Z,27.27
2022-08-14T12:03:57.204Z,27.10
2022-08-14T12:07:20.693Z,26.71
2022-08-14T12:10:42.881Z,26.51
2022-08-14T12:14:03.749Z,26.46
2022-08-14T12:17:26.725Z,26.68
2022-08-14T12:20:52.695Z,26.52
2022-08-14T12:24:35.875Z,26.56
2022-08-14T12:27:59.279Z,26.18
2022-08-14T12:31:36.324Z,25.88
2022-08-14T12:35:07.737Z,25.57
2022-08-14T12:38:31.744Z,24.99
2022-08-14T12:41:53.818Z,24.75
2022-08-14T12:45:21.716Z,23.76
2022-08-14T12:48:43.736Z,22.96
2022-08-14T12:52:17.225Z,22.29
2022-08-14T12:56:17.894Z,22.16
2022-08-14T12:59:16.733Z,21.97
2022-08-14T13:02:38.821Z,21.87
2022-08-14T13:06:03.776Z,21.18
2022-08-14T13:09:26.765Z,21.38
2022-08-14T13:13:12.038Z,22.00
2022-08-14T13:16:38.031Z,22.73
2022-08-14T13:20:00.768Z,23.60
2022-08-14T13:23:32.272Z,24.28
2022-08-14T13:27:03.760Z,24.87
2022-08-14T13:30:26.761Z,25.33
2022-08-14T13:33:48.760Z,25.33
2022-08-14T13:37:14.738Z,25.59
2022-08-14T13:40:38.739Z,25.77
2022-08-14T13:44:03.787Z,25.36
2022-08-14T13:47:26.774Z,24.75
2022-08-14T13:50:49.744Z,25.08
2022-08-14T13:54:11.527Z,24.72
2022-08-14T13:57:33.850Z,24.88
2022-08-14T14:00:55.603Z,25.02
2022-08-14T14:04:18.855Z,24.62
2022-08-14T14:07:43.423Z,22.17
2022-08-14T14:11:05.775Z,20.49
2022-08-14T14:14:44.753Z,19.28
2022-08-14T14:18:34.096Z,18.76
2022-08-14T14:21:59.457Z,17.95
2022-08-14T14:29:33.527Z,19.30
2022-08-14T14:33:46.391Z,19.63
2022-08-14T14:37:11.884Z,20.05
2022-08-14T14:40:52.393Z,21.14
2022-08-14T14:44:24.394Z,22.36
2022-08-14T14:53:39.128Z,23.61
2022-08-14T14:57:16.752Z,24.15
2022-08-14T15:00:42.058Z,24.45
2022-08-14T15:04:20.270Z,24.83
2022-08-14T15:08:02.925Z,25.83
2022-08-14T16:00:37.916Z,28.48
2022-08-14T16:03:57.998Z,28.61
2022-08-14T16:07:28.198Z,28.71
2022-08-14T16:10:54.964Z,28.79
2022-08-14T16:14:21.207Z,28.90
2022-08-14T16:18:10.168Z,28.78
2022-08-14T16:22:57.673Z,28.87
2022-08-14T16:27:05.228Z,29.20
2022-08-14T16:30:36.103Z,29.00
2022-08-14T16:34:43.997Z,29.35
2022-08-14T16:57:43.080Z,30.00
2022-08-14T17:01:22.438Z,30.26
2022-08-14T17:04:46.061Z,30.28
2022-08-14T17:08:32.131Z,30.79
2022-08-14T17:12:07.645Z,30.54
2022-08-14T17:15:29.086Z,30.80
2022-08-14T17:19:00.646Z,30.88
2022-08-14T17:22:26.911Z,31.29
2022-08-14T17:25:50.897Z,31.09
2022-08-14T17:29:44.602Z,31.42
2022-08-14T17:33:27.231Z,31.44
2022-08-14T17:36:51.030Z,31.75
2022-08-14T17:40:24.103Z,32.10
2022-08-14T17:43:41.344Z,32.34
2022-08-14T17:47:09.052Z,33.01
2022-08-14T17:50:55.109Z,32.95
2022-08-14T17:54:14.009Z,33.42
2022-08-14T17:57:46.577Z,33.61
2022-08-14T18:01:12.111Z,34.10
2022-08-14T18:04:33.041Z,34.33
2022-08-14T18:08:33.167Z,34.35
2022-08-14T18:11:46.318Z,34.49
2022-08-14T18:15:12.263Z,34.84
2022-08-14T18:18:38.033Z,34.91
2022-08-14T18:22:03.948Z,35.15
2022-08-14T18:25:25.019Z,35.39
2022-08-14T18:28:51.484Z,35.91
2022-08-14T18:32:14.018Z,35.92
2022-08-14T18:35:59.749Z,35.99
2022-08-14T18:40:01.295Z,36.36
2022-08-14T18:43:24.040Z,36.50
2022-08-14T18:47:25.549Z,36.92
2022-08-14T18:50:47.036Z,36.62
2022-08-14T18:54:14.018Z,36.98
2022-08-14T18:57:40.608Z,36.94
2022-08-14T19:01:04.512Z,37.04
2022-08-14T19:04:51.039Z,37.15
2022-08-14T19:08:39.050Z,36.69
2022-08-14T19:12:01.093Z,37.33
2022-08-14T19:15:25.705Z,37.30
2022-08-14T19:18:48.079Z,37.68
2022-08-14T19:22:12.662Z,37.58
2022-08-14T19:26:02.046Z,37.98
2022-08-14T19:29:47.854Z,38.08
2022-08-14T19:33:13.024Z,37.95
2022-08-14T19:37:04.494Z,38.07
2022-08-14T19:40:20.398Z,38.43
2022-08-14T19:43:56.454Z,38.68
2022-08-14T19:47:18.079Z,38.59
2022-08-14T19:50:44.383Z,38.63
2022-08-14T19:54:15.190Z,38.67
2022-08-14T19:57:57.866Z,38.88
2022-08-14T20:01:20.215Z,38.89
2022-08-14T20:04:55.697Z,39.36
2022-08-14T20:11:01.057Z,39.50
2022-08-14T20:12:04.635Z,39.56
2022-08-14T20:15:27.070Z,39.97
2022-08-14T20:19:08.058Z,40.09
2022-08-14T20:22:36.274Z,40.63
2022-08-14T20:26:01.048Z,40.55
2022-08-14T20:29:15.183Z,40.21
2022-08-14T20:32:36.072Z,40.62
2022-08-14T20:36:00.060Z,40.56
2022-08-14T20:39:23.081Z,40.41
2022-08-14T20:43:06.072Z,40.61
2022-08-14T20:46:31.384Z,40.66
2022-08-14T20:49:52.064Z,40.74
2022-08-14T20:53:15.130Z,40.72
2022-08-14T20:56:36.104Z,40.64
2022-08-14T21:00:02.106Z,40.82
2022-08-14T21:03:57.154Z,40.86
2022-08-14T21:07:36.201Z,41.03
2022-08-14T21:11:00.083Z,41.11
2022-08-14T21:14:28.301Z,41.29
2022-08-14T21:17:43.454Z,41.64
2022-08-14T21:21:04.674Z,41.88
2022-08-14T21:24:47.657Z,41.87
2022-08-14T21:28:20.943Z,42.19
2022-08-14T21:31:55.377Z,42.32
2022-08-14T21:35:20.089Z,42.24
2022-08-14T21:38:45.195Z,42.53
2022-08-14T21:42:07.121Z,42.63
2022-08-14T21:45:35.671Z,42.86
2022-08-14T21:48:57.092Z,43.24
2022-08-14T21:52:51.959Z,43.53
2022-08-14T21:56:05.142Z,43.72
2022-08-14T21:59:39.087Z,43.94
2022-08-14T22:03:00.094Z,44.03
2022-08-14T22:06:21.110Z,44.47
2022-08-14T22:09:54.956Z,44.40
2022-08-14T22:13:16.840Z,44.59
2022-08-14T22:16:59.703Z,44.68
2022-08-14T22:20:22.111Z,44.63
2022-08-14T22:23:43.143Z,44.67
2022-08-14T22:27:04.138Z,44.90
2022-08-14T22:30:30.143Z,44.94
2022-08-14T22:33:52.116Z,44.95
2022-08-14T22:37:19.128Z,45.08
2022-08-14T22:41:14.884Z,45.06
2022-08-14T22:44:29.222Z,44.90
2022-08-14T22:47:50.120Z,44.70
2022-08-14T22:51:17.839Z,44.83
2022-08-14T22:54:52.041Z,44.49
2022-08-14T22:58:17.165Z,44.58
2022-08-14T23:01:56.468Z,44.49
2022-08-14T23:05:38.987Z,44.38
2022-08-14T23:09:34.571Z,44.62
2022-08-14T23:12:43.143Z,44.46
2022-08-14T23:16:04.150Z,44.27
2022-08-14T23:19:25.175Z,44.40
2022-08-14T23:22:56.138Z,44.33
2022-08-14T23:26:48.071Z,44.27
2022-08-14T23:29:58.129Z,44.30
2022-08-14T23:33:19.118Z,44.08
2022-08-14T23:36:53.053Z,44.12
2022-08-14T23:40:26.478Z,44.45
2022-08-14T23:43:50.160Z,44.50
2022-08-14T23:47:25.667Z,44.56
2022-08-14T23:50:50.132Z,44.55
2022-08-14T23:54:48.646Z,44.62
2022-08-14T23:57:58.539Z,44.74
